Aeroporto :
LOGIN :

Iscrizione | Disclaimer

   EN    FR    IT 

 










Sommario :    VFR   VFR Marginale   IFR   IFR Intensivo   IFR Molto Intensivo
Visibilità : 
Base nubi : 
>= 8 km
>= 3000ft
5 / 8 km
1000 / 3000 ft
1500m / 5 km
500 / 1000 ft
800 / 1500m
200 / 500 ft
< 800m
< 200 ft
Simboli :   Temporali  Nebbia  Neve Forte  Precipitazioni Forti  Vento > 20 kt
SIGMETs :   Varie  Temporali  Ghiacco  Turbolenza  Onda orograficha  Ceneri Vulcaniche







- Altitudine del aeroporto : 245 ft
- Codice IATA : BIQ
- Carte del aeroporto


LFBZ - Biarritz

ULTIMO METAR :
  • 241700Z AUTO 26005KT 230V290 7000 OVC005 12/11 Q1025 TEMPO 0600 FG VV///

METARs OBSOLETI :
  • 241630Z AUTO 28008KT 240V310 8000 OVC005 13/11 Q1025 TEMPO 0600 FG VV///
  • 241600Z AUTO 28009KT 250V310 8000 OVC004 12/11 Q1025 TEMPO 3000 BR
  • 241530Z AUTO 29010KT 250V310 6000 OVC003 12/11 Q1025 TEMPO 3000 BR
  • 241500Z AUTO 27009KT 5000 BR BKN003 13/11 Q1025 TEMPO BKN005
  • 241430Z AUTO 26009KT 230V290 6000 BKN003 14/12 Q1025 TEMPO BKN005

TAF AMD TAF LFBZ
Valido dal 24 a 15 ore il 25 a 12 ore UTC


241504Z 2415/2512 30008KT CAVOK
PROB40 2415/2507 3000 BR BKN003
PROB30
TEMPO 2418/2420 0600 FG VV///
BECMG 2507/2509 BKN035
Nessun NOTAM noto per questo aeroporto.



MetMap, La meteo Aeronautica in un colpo d'occhio ! - Copyright ORBIFLY Dicembre 2007 - Disclaimer

ORBIFLY MET'MAP TEAM :

Programmazione e sviluppo : Alexandra Zaïnal
Concezione e sviluppo : Baudouin d'Aumeries
Co-Programmazione e sviluppo : Marc-Olivier Méhu
Supporto tecnico e logistico : Manuel Goepfert
Aiuto per la traduzione : Arnaldo La Scala

Contatto : metmap@orbifly.com




FONTI E CREDITI :

   NOAA